METAR Data
IDs: Format: Raw Decoded Include TAF

Data at: 0609 UTC 24 Sep 2018

KMIA 240553Z 09004KT 10SM FEW023 SCT250 27/24 A2997 RMK AO2 SLP149 T02720244 10283 20272 58004 $
KMIA 240453Z 07006KT 10SM FEW023 SCT250 28/24 A2998 RMK AO2 SLP152 T02780244 403220256 $
KMIA 240353Z 06004KT 10SM FEW023 SCT250 28/24 A2999 RMK AO2 SLP154 T02830244 $
KMIA 240253Z 09006KT 10SM FEW024 SCT250 28/24 A2998 RMK AO2 SLP153 T02830244 51015 $
KMIA 240153Z 08008KT 10SM SCT022 SCT250 28/24 A2998 RMK AO2 SLP151 FRQ LTGIC DSNT W CB DSNT W MOV W T02830244 $
KMIA 240132Z 07006KT 10SM SCT022 SCT250 28/25 A2998 RMK AO2 FRQ LTGIC DSNT W CB DSNT W MOV W T02830250 $
KMIA 240053Z 09008KT 10SM BKN023 BKN250 28/25 A2996 RMK AO2 SLP146 CONS LTGIC DSNT W CB DSNT W MOV SW T02830250 $
KMIA 232353Z 09007KT 10SM FEW027 FEW055 FEW130 SCT250 28/24 A2994 RMK AO2 SLP139 OCNL LTGIC DSNT W CB DSNT W MOV SW T02830239 10322 20283 51005 $
KMIA 232253Z 08010KT 10SM FEW030 FEW055 FEW130 SCT250 29/23 A2993 RMK AO2 SLP136 CB DSNT SE AND W MOV SW T02890228 $
KMIA 232153Z 07008KT 10SM SCT036 SCT130 SCT250 30/24 A2993 RMK AO2 LTG DSNT W SLP136 CB DSNT W AND NW MOV SW T03000239 $
KMIA 232053Z 09009KT 10SM FEW035 FEW075 SCT250 31/23 A2992 RMK AO2 SLP133 T03110233 56014 $
KMIA 231953Z 11010KT 10SM FEW035 SCT130 BKN250 31/22 A2993 RMK AO2 SLP136 T03110222 $
KMIA 231853Z 09007KT 10SM SCT035 SCT130 SCT250 32/22 A2995 RMK AO2 SLP141 T03170217 $
KMIA 231753Z 10009KT 10SM FEW035 FEW050 BKN250 32/22 A2997 RMK AO2 SLP148 CB DSNT N AND SW T03170222 10322 20272 58014 $
KMIA 231653Z 11006KT 10SM SCT035 BKN250 32/23 A2998 RMK AO2 SLP154 CB DSNT NE T03170233 $
KMIA 231553Z 08007KT 10SM SCT035 BKN250 31/23 A2999 RMK AO2 SLP157 T03060233 $
KMIA 231453Z 13005KT 10SM SCT032 BKN250 31/24 A3001 RMK AO2 SLP161 T03060239 51016 $
KMIA 231353Z 11005KT 10SM SCT027 BKN250 30/24 A3000 RMK AO2 SLP159 T03000244 $
KMIA 231253Z VRB03KT 10SM FEW030 FEW070 SCT250 29/24 A2998 RMK AO2 SLP151 CB DSNT SW T02890244 $
KMIA 231153Z 36003KT 10SM FEW025 SCT250 27/23 A2996 RMK AO2 SLP146 CB DSNT SW T02720228 10278 20256 51011 $
KMIA 231053Z 00000KT 10SM FEW025 FEW250 26/23 A2995 RMK AO2 SLP143 CB DSNT S T02610228 $
KMIA 230953Z 04003KT 10SM FEW023 SCT250 27/23 A2994 RMK AO2 LTG DSNT S SLP138 T02670233 $
KMIA 230853Z 03003KT 10SM FEW023 SCT250 27/24 A2993 RMK AO2 SLP134 T02670244 56013 $
KMIA 230753Z 03003KT 10SM FEW023 SCT250 27/24 A2993 RMK AO2 SLP136 T02720244 $
KMIA 230653Z 06003KT 10SM FEW025 SCT250 27/24 A2994 RMK AO2 SLP138 T02720244 $
KMIA 230553Z 07004KT 10SM FEW025 SCT250 27/24 A2997 RMK AO2 SLP148 T02720244 10283 20272 58008 $
KMIA 230453Z 07003KT 10SM FEW025 SCT250 28/24 A2998 RMK AO2 SLP150 T02780244 403170244 $
KMIA 230353Z 09005KT 10SM FEW026 SCT250 28/24 A2999 RMK AO2 SLP154 T02780244 $
KMIA 230253Z 08006KT 10SM SCT021 SCT250 28/25 A2999 RMK AO2 SLP156 T02780250 51014 $
KMIA 230153Z 09009KT 10SM FEW025 SCT250 28/25 A2998 RMK AO2 SLP153 T02780250 $
KMIA 230053Z 09008KT 10SM FEW025 SCT250 28/24 A2997 RMK AO2 SLP147 T02780244 $
KMIA 222353Z 09007KT 10SM FEW025 FEW100 BKN250 28/24 A2995 RMK AO2 SLP142 CB DSNT NW MOV W T02830239 10317 20283 51003 $
KMIA 222253Z 06006KT 10SM FEW026 FEW100 BKN250 28/23 A2995 RMK AO2 SLP141 CB DSNT NE AND SE MOV W T02830233 $
KMIA 222153Z 07009KT 10SM FEW028 FEW100 BKN250 29/24 A2994 RMK AO2 SLP140 CB DSNT NE AND SE MOV W T02890239 $
KMIA 222053Z 12008KT 10SM FEW035 FEW055 SCT100 BKN250 30/24 A2994 RMK AO2 SLP139 T03000239 56014 $
KMIA 221953Z 14008KT 10SM SCT035 SCT055 SCT090 BKN250 31/24 A2995 RMK AO2 SLP143 CB DSNT E AND SW-NW MOV W T03060239 $
KMIA 221853Z 13006KT 10SM FEW032 SCT080 BKN250 31/23 A2997 RMK AO2 LTG DSNT NW SLP147 CB DSNT NE-SE AND SW-NW MOV W T03060228 $